sensor_id;sensor_type;location;lat;lon;timestamp;pressure;altitude;pressure_sealevel;temperature;humidity
48796;BME280;34607;48.520;-1.330;2022-10-22T00:02:22;99395.63;;;15.49;100.00
48796;BME280;34607;48.520;-1.330;2022-10-22T00:04:50;99417.38;;;15.47;100.00
48796;BME280;34607;48.520;-1.330;2022-10-22T00:07:19;99410.59;;;15.38;100.00
48796;BME280;34607;48.520;-1.330;2022-10-22T00:09:46;99418.59;;;15.29;100.00
48796;BME280;34607;48.520;-1.330;2022-10-22T00:12:15;99422.88;;;15.31;100.00
48796;BME280;34607;48.520;-1.330;2022-10-22T00:14:42;99432.53;;;15.28;100.00
48796;BME280;34607;48.520;-1.330;2022-10-22T00:17:09;99418.66;;;15.26;100.00
48796;BME280;34607;48.520;-1.330;2022-10-22T00:19:37;99423.00;;;15.27;100.00
48796;BME280;34607;48.520;-1.330;2022-10-22T00:22:04;99411.84;;;15.19;100.00
48796;BME280;34607;48.520;-1.330;2022-10-22T00:24:32;99412.88;;;15.08;100.00
48796;BME280;34607;48.520;-1.330;2022-10-22T00:26:59;99417.31;;;15.03;100.00
48796;BME280;34607;48.520;-1.330;2022-10-22T00:29:27;99425.09;;;15.06;100.00
48796;BME280;34607;48.520;-1.330;2022-10-22T00:31:55;99431.22;;;15.02;100.00
48796;BME280;34607;48.520;-1.330;2022-10-22T00:34:22;99426.03;;;15.01;100.00
48796;BME280;34607;48.520;-1.330;2022-10-22T00:36:50;99432.94;;;15.03;100.00
48796;BME280;34607;48.520;-1.330;2022-10-22T00:39:21;99422.66;;;14.94;100.00
48796;BME280;34607;48.520;-1.330;2022-10-22T00:41:50;99445.31;;;14.90;100.00
48796;BME280;34607;48.520;-1.330;2022-10-22T00:47:24;99445.19;;;15.00;100.00
48796;BME280;34607;48.520;-1.330;2022-10-22T00:49:54;99448.69;;;14.97;100.00
48796;BME280;34607;48.520;-1.330;2022-10-22T00:52:22;99446.09;;;14.95;100.00
48796;BME280;34607;48.520;-1.330;2022-10-22T00:54:49;99450.41;;;14.98;100.00
48796;BME280;34607;48.520;-1.330;2022-10-22T00:57:18;99461.69;;;14.98;100.00
48796;BME280;34607;48.520;-1.330;2022-10-22T00:59:46;99472.13;;;14.98;100.00
48796;BME280;34607;48.520;-1.330;2022-10-22T01:02:14;99467.72;;;15.02;100.00
48796;BME280;34607;48.520;-1.330;2022-10-22T01:04:43;99472.09;;;15.00;100.00
48796;BME280;34607;48.520;-1.330;2022-10-22T01:07:15;99479.88;;;15.03;100.00
48796;BME280;34607;48.520;-1.330;2022-10-22T01:09:49;99474.75;;;14.97;100.00
48796;BME280;34607;48.520;-1.330;2022-10-22T01:12:25;99480.97;;;14.88;100.00
48796;BME280;34607;48.520;-1.330;2022-10-22T01:15:04;99493.19;;;14.86;100.00
48796;BME280;34607;48.520;-1.330;2022-10-22T01:17:39;99491.47;;;14.82;100.00
48796;BME280;34607;48.520;-1.330;2022-10-22T01:20:16;99489.78;;;14.79;100.00
48796;BME280;34607;48.520;-1.330;2022-10-22T01:22:54;99481.22;;;14.73;100.00
48796;BME280;34607;48.520;-1.330;2022-10-22T01:25:30;99498.44;;;14.82;100.00
48796;BME280;34607;48.520;-1.330;2022-10-22T01:28:06;99509.72;;;14.84;100.00
48796;BME280;34607;48.520;-1.330;2022-10-22T01:30:39;99514.91;;;14.84;100.00
48796;BME280;34607;48.520;-1.330;2022-10-22T01:33:09;99515.72;;;14.87;100.00
48796;BME280;34607;48.520;-1.330;2022-10-22T01:35:41;99514.84;;;14.90;100.00
48796;BME280;34607;48.520;-1.330;2022-10-22T01:38:11;99519.13;;;14.92;100.00
48796;BME280;34607;48.520;-1.330;2022-10-22T01:40:40;99527.69;;;15.02;100.00
48796;BME280;34607;48.520;-1.330;2022-10-22T01:43:10;99522.41;;;15.07;100.00
48796;BME280;34607;48.520;-1.330;2022-10-22T01:45:42;99519.81;;;15.05;100.00
48796;BME280;34607;48.520;-1.330;2022-10-22T01:48:25;99530.19;;;15.10;100.00
48796;BME280;34607;48.520;-1.330;2022-10-22T01:51:05;99527.66;;;15.04;100.00
48796;BME280;34607;48.520;-1.330;2022-10-22T01:53:39;99532.00;;;15.06;100.00
48796;BME280;34607;48.520;-1.330;2022-10-22T01:56:34;99533.75;;;15.03;100.00
48796;BME280;34607;48.520;-1.330;2022-10-22T01:59:08;99531.28;;;14.93;100.00
48796;BME280;34607;48.520;-1.330;2022-10-22T02:01:52;99536.47;;;14.96;100.00
48796;BME280;34607;48.520;-1.330;2022-10-22T02:04:26;99529.41;;;15.03;100.00
48796;BME280;34607;48.520;-1.330;2022-10-22T02:06:57;99534.63;;;15.05;100.00
48796;BME280;34607;48.520;-1.330;2022-10-22T02:09:26;99539.03;;;15.00;100.00
48796;BME280;34607;48.520;-1.330;2022-10-22T02:11:55;99539.13;;;14.92;100.00
48796;BME280;34607;48.520;-1.330;2022-10-22T02:14:25;99545.19;;;14.92;100.00
48796;BME280;34607;48.520;-1.330;2022-10-22T02:16:56;99539.09;;;14.95;100.00
48796;BME280;34607;48.520;-1.330;2022-10-22T02:19:27;99535.69;;;14.91;100.00
48796;BME280;34607;48.520;-1.330;2022-10-22T02:21:56;99535.72;;;14.87;100.00
48796;BME280;34607;48.520;-1.330;2022-10-22T02:24:24;99537.53;;;14.82;100.00
48796;BME280;34607;48.520;-1.330;2022-10-22T02:26:53;99538.47;;;14.79;100.00
48796;BME280;34607;48.520;-1.330;2022-10-22T02:29:28;99539.38;;;14.73;100.00
48796;BME280;34607;48.520;-1.330;2022-10-22T02:31:59;99511.81;;;14.57;100.00
48796;BME280;34607;48.520;-1.330;2022-10-22T02:34:30;99540.31;;;14.71;100.00
48796;BME280;34607;48.520;-1.330;2022-10-22T02:36:58;99543.06;;;14.60;100.00
48796;BME280;34607;48.520;-1.330;2022-10-22T02:39:29;99547.38;;;14.58;100.00
48796;BME280;34607;48.520;-1.330;2022-10-22T02:41:57;99548.28;;;14.57;100.00
48796;BME280;34607;48.520;-1.330;2022-10-22T02:44:24;99556.09;;;14.57;100.00
48796;BME280;34607;48.520;-1.330;2022-10-22T02:46:51;99541.34;;;14.56;100.00
48796;BME280;34607;48.520;-1.330;2022-10-22T02:49:20;99541.34;;;14.59;100.00
48796;BME280;34607;48.520;-1.330;2022-10-22T02:51:47;99538.72;;;14.59;100.00
48796;BME280;34607;48.520;-1.330;2022-10-22T02:54:14;99543.06;;;14.57;100.00
48796;BME280;34607;48.520;-1.330;2022-10-22T02:56:41;99550.91;;;14.55;100.00
48796;BME280;34607;48.520;-1.330;2022-10-22T02:59:08;99540.56;;;14.48;100.00
48796;BME280;34607;48.520;-1.330;2022-10-22T03:01:35;99546.69;;;14.43;100.00
48796;BME280;34607;48.520;-1.330;2022-10-22T03:04:03;99545.88;;;14.41;100.00
48796;BME280;34607;48.520;-1.330;2022-10-22T03:06:31;99543.22;;;14.45;100.00
48796;BME280;34607;48.520;-1.330;2022-10-22T03:08:58;99544.94;;;14.44;100.00
48796;BME280;34607;48.520;-1.330;2022-10-22T03:11:26;99551.91;;;14.43;100.00
48796;BME280;34607;48.520;-1.330;2022-10-22T03:13:53;99554.53;;;14.40;100.00
48796;BME280;34607;48.520;-1.330;2022-10-22T03:16:20;99551.09;;;14.40;100.00
48796;BME280;34607;48.520;-1.330;2022-10-22T03:18:47;99559.78;;;14.39;100.00
48796;BME280;34607;48.520;-1.330;2022-10-22T03:21:23;99559.03;;;14.29;100.00
48796;BME280;34607;48.520;-1.330;2022-10-22T03:23:53;99560.78;;;14.26;100.00
48796;BME280;34607;48.520;-1.330;2022-10-22T03:26:21;99558.19;;;14.26;100.00
48796;BME280;34607;48.520;-1.330;2022-10-22T03:28:48;99559.06;;;14.26;100.00
48796;BME280;34607;48.520;-1.330;2022-10-22T03:31:15;99562.53;;;14.25;100.00
48796;BME280;34607;48.520;-1.330;2022-10-22T03:33:42;99566.03;;;14.24;100.00
48796;BME280;34607;48.520;-1.330;2022-10-22T03:36:09;99569.50;;;14.26;100.00
48796;BME280;34607;48.520;-1.330;2022-10-22T03:38:38;99573.81;;;14.26;100.00
48796;BME280;34607;48.520;-1.330;2022-10-22T03:41:08;99572.94;;;14.28;100.00
48796;BME280;34607;48.520;-1.330;2022-10-22T03:43:35;99572.97;;;14.25;100.00
48796;BME280;34607;48.520;-1.330;2022-10-22T03:46:03;99568.59;;;14.26;100.00
48796;BME280;34607;48.520;-1.330;2022-10-22T03:48:30;99574.69;;;14.26;100.00
48796;BME280;34607;48.520;-1.330;2022-10-22T03:50:58;99575.53;;;14.28;100.00
48796;BME280;34607;48.520;-1.330;2022-10-22T03:53:25;99576.38;;;14.29;100.00
48796;BME280;34607;48.520;-1.330;2022-10-22T03:55:52;99580.75;;;14.27;100.00
48796;BME280;34607;48.520;-1.330;2022-10-22T03:58:20;99579.91;;;14.26;100.00
48796;BME280;34607;48.520;-1.330;2022-10-22T04:00:47;99582.50;;;14.28;100.00
48796;BME280;34607;48.520;-1.330;2022-10-22T04:03:14;99586.91;;;14.22;100.00
48796;BME280;34607;48.520;-1.330;2022-10-22T04:05:41;99584.31;;;14.21;100.00
48796;BME280;34607;48.520;-1.330;2022-10-22T04:08:08;99586.91;;;14.21;100.00
48796;BME280;34607;48.520;-1.330;2022-10-22T04:10:35;99588.63;;;14.20;100.00
48796;BME280;34607;48.520;-1.330;2022-10-22T04:13:02;99600.75;;;14.23;100.00
48796;BME280;34607;48.520;-1.330;2022-10-22T04:15:31;99600.78;;;14.20;100.00
48796;BME280;34607;48.520;-1.330;2022-10-22T04:17:58;99598.16;;;14.23;100.00
48796;BME280;34607;48.520;-1.330;2022-10-22T04:20:25;99599.84;;;14.27;100.00
48796;BME280;34607;48.520;-1.330;2022-10-22T04:22:52;99605.03;;;14.29;100.00
48796;BME280;34607;48.520;-1.330;2022-10-22T04:25:19;99600.66;;;14.32;100.00
48796;BME280;34607;48.520;-1.330;2022-10-22T04:27:46;99609.34;;;14.34;100.00
48796;BME280;34607;48.520;-1.330;2022-10-22T04:30:13;99614.56;;;14.31;100.00
48796;BME280;34607;48.520;-1.330;2022-10-22T04:32:42;99612.00;;;14.28;100.00
48796;BME280;34607;48.520;-1.330;2022-10-22T04:35:09;99610.28;;;14.26;100.00
48796;BME280;34607;48.520;-1.330;2022-10-22T04:37:36;99618.03;;;14.30;100.00
48796;BME280;34607;48.520;-1.330;2022-10-22T04:40:03;99615.44;;;14.32;100.00
48796;BME280;34607;48.520;-1.330;2022-10-22T04:42:31;99630.22;;;14.30;100.00
48796;BME280;34607;48.520;-1.330;2022-10-22T04:44:58;99641.44;;;14.35;100.00
48796;BME280;34607;48.520;-1.330;2022-10-22T04:47:25;99639.72;;;14.32;100.00
48796;BME280;34607;48.520;-1.330;2022-10-22T04:49:53;99645.81;;;14.34;100.00
48796;BME280;34607;48.520;-1.330;2022-10-22T04:52:20;99646.63;;;14.36;100.00
48796;BME280;34607;48.520;-1.330;2022-10-22T04:54:47;99644.91;;;14.34;100.00
48796;BME280;34607;48.520;-1.330;2022-10-22T04:57:14;99640.50;;;14.40;100.00
48796;BME280;34607;48.520;-1.330;2022-10-22T04:59:41;99648.34;;;14.39;100.00
48796;BME280;34607;48.520;-1.330;2022-10-22T05:02:08;99646.63;;;14.39;100.00
48796;BME280;34607;48.520;-1.330;2022-10-22T05:04:35;99653.63;;;14.34;100.00
48796;BME280;34607;48.520;-1.330;2022-10-22T05:07:04;99624.25;;;14.17;100.00
48796;BME280;34607;48.520;-1.330;2022-10-22T05:09:31;99662.31;;;14.30;100.00
48796;BME280;34607;48.520;-1.330;2022-10-22T05:11:58;99662.31;;;14.30;100.00
48796;BME280;34607;48.520;-1.330;2022-10-22T05:14:25;99662.34;;;14.27;100.00
48796;BME280;34607;48.520;-1.330;2022-10-22T05:16:53;99674.50;;;14.28;100.00
48796;BME280;34607;48.520;-1.330;2022-10-22T05:19:22;99672.75;;;14.29;100.00
48796;BME280;34607;48.520;-1.330;2022-10-22T05:21:50;99675.41;;;14.24;100.00
48796;BME280;34607;48.520;-1.330;2022-10-22T05:24:19;99689.28;;;14.26;100.00
48796;BME280;34607;48.520;-1.330;2022-10-22T05:26:48;99683.19;;;14.26;100.00
48796;BME280;34607;48.520;-1.330;2022-10-22T05:29:15;99681.41;;;14.31;100.00
48796;BME280;34607;48.520;-1.330;2022-10-22T05:31:42;99688.38;;;14.29;100.00
48796;BME280;34607;48.520;-1.330;2022-10-22T05:34:10;99681.47;;;14.24;100.00
48796;BME280;34607;48.520;-1.330;2022-10-22T05:36:37;99688.34;;;14.30;100.00
48796;BME280;34607;48.520;-1.330;2022-10-22T05:39:04;99683.16;;;14.29;100.00
48796;BME280;34607;48.520;-1.330;2022-10-22T05:41:34;99678.03;;;14.22;100.00
48796;BME280;34607;48.520;-1.330;2022-10-22T05:44:02;99678.94;;;14.17;100.00
48796;BME280;34607;48.520;-1.330;2022-10-22T05:46:32;99682.41;;;14.19;100.00
48796;BME280;34607;48.520;-1.330;2022-10-22T05:49:01;99676.34;;;14.15;100.00
48796;BME280;34607;48.520;-1.330;2022-10-22T05:51:31;99685.03;;;14.14;100.00
48796;BME280;34607;48.520;-1.330;2022-10-22T05:54:02;99675.56;;;14.09;100.00
48796;BME280;34607;48.520;-1.330;2022-10-22T05:56:30;99680.75;;;14.09;100.00
48796;BME280;34607;48.520;-1.330;2022-10-22T05:58:59;99677.28;;;14.08;100.00
48796;BME280;34607;48.520;-1.330;2022-10-22T06:01:28;99679.00;;;14.11;100.00
48796;BME280;34607;48.520;-1.330;2022-10-22T06:03:57;99670.38;;;14.05;100.00
48796;BME280;34607;48.520;-1.330;2022-10-22T06:06:28;99664.25;;;14.07;100.00
48796;BME280;34607;48.520;-1.330;2022-10-22T06:09:01;99676.41;;;14.09;100.00
48796;BME280;34607;48.520;-1.330;2022-10-22T06:11:29;99680.75;;;14.09;100.00
48796;BME280;34607;48.520;-1.330;2022-10-22T06:13:56;99687.69;;;14.07;100.00
48796;BME280;34607;48.520;-1.330;2022-10-22T06:16:27;99685.09;;;14.07;100.00
48796;BME280;34607;48.520;-1.330;2022-10-22T06:18:55;99661.81;;;13.91;100.00
48796;BME280;34607;48.520;-1.330;2022-10-22T06:21:22;99683.41;;;14.02;100.00
48796;BME280;34607;48.520;-1.330;2022-10-22T06:23:49;99690.31;;;14.05;100.00
48796;BME280;34607;48.520;-1.330;2022-10-22T06:26:16;99686.00;;;14.05;100.00
48796;BME280;34607;48.520;-1.330;2022-10-22T06:28:43;99697.25;;;14.06;100.00
48796;BME280;34607;48.520;-1.330;2022-10-22T06:31:10;99695.59;;;14.00;100.00
48796;BME280;34607;48.520;-1.330;2022-10-22T06:33:39;99693.00;;;13.97;100.00
48796;BME280;34607;48.520;-1.330;2022-10-22T06:36:08;99691.34;;;13.89;100.00
48796;BME280;34607;48.520;-1.330;2022-10-22T06:38:36;99693.03;;;13.91;100.00
48796;BME280;34607;48.520;-1.330;2022-10-22T06:41:04;99695.63;;;13.93;100.00
48796;BME280;34607;48.520;-1.330;2022-10-22T06:43:31;99697.38;;;13.92;100.00
48796;BME280;34607;48.520;-1.330;2022-10-22T06:45:59;99694.78;;;13.92;100.00
48796;BME280;34607;48.520;-1.330;2022-10-22T06:48:26;99699.97;;;13.92;100.00
48796;BME280;34607;48.520;-1.330;2022-10-22T06:50:55;99705.16;;;13.97;100.00
48796;BME280;34607;48.520;-1.330;2022-10-22T06:53:22;99705.16;;;13.97;100.00
48796;BME280;34607;48.520;-1.330;2022-10-22T06:55:49;99704.25;;;13.98;100.00
48796;BME280;34607;48.520;-1.330;2022-10-22T06:58:16;99706.00;;;14.00;100.00
48796;BME280;34607;48.520;-1.330;2022-10-22T07:00:43;99716.41;;;14.02;100.00
48796;BME280;34607;48.520;-1.330;2022-10-22T07:03:11;99710.34;;;13.98;100.00
48796;BME280;34607;48.520;-1.330;2022-10-22T07:05:39;99716.41;;;13.99;100.00
48796;BME280;34607;48.520;-1.330;2022-10-22T07:08:07;99720.72;;;14.00;100.00
48796;BME280;34607;48.520;-1.330;2022-10-22T07:10:34;99719.03;;;13.94;100.00
48796;BME280;34607;48.520;-1.330;2022-10-22T07:13:01;99730.28;;;13.98;100.00
48796;BME280;34607;48.520;-1.330;2022-10-22T07:15:28;99735.50;;;13.99;100.00
48796;BME280;34607;48.520;-1.330;2022-10-22T07:17:55;99725.97;;;13.98;100.00
48796;BME280;34607;48.520;-1.330;2022-10-22T07:20:22;99731.97;;;14.07;100.00
48796;BME280;34607;48.520;-1.330;2022-10-22T07:22:50;99732.84;;;14.09;100.00
48796;BME280;34607;48.520;-1.330;2022-10-22T07:25:18;99740.56;;;14.15;100.00
48796;BME280;34607;48.520;-1.330;2022-10-22T07:27:45;99737.94;;;14.21;100.00
48796;BME280;34607;48.520;-1.330;2022-10-22T07:30:12;99745.72;;;14.24;100.00
48796;BME280;34607;48.520;-1.330;2022-10-22T07:32:40;99737.84;;;14.27;100.00
48796;BME280;34607;48.520;-1.330;2022-10-22T07:35:07;99748.25;;;14.32;100.00
48796;BME280;34607;48.520;-1.330;2022-10-22T07:37:34;99756.03;;;14.36;100.00
48796;BME280;34607;48.520;-1.330;2022-10-22T07:40:01;99755.97;;;14.42;100.00
48796;BME280;34607;48.520;-1.330;2022-10-22T07:42:30;99760.25;;;14.50;100.00
48796;BME280;34607;48.520;-1.330;2022-10-22T07:44:57;99758.47;;;14.55;100.00
48796;BME280;34607;48.520;-1.330;2022-10-22T07:47:24;99742.84;;;14.55;100.00
48796;BME280;34607;48.520;-1.330;2022-10-22T07:49:51;99763.63;;;14.58;100.00
48796;BME280;34607;48.520;-1.330;2022-10-22T07:52:18;99768.00;;;14.56;100.00
48796;BME280;34607;48.520;-1.330;2022-10-22T07:54:45;99769.75;;;14.54;100.00
48796;BME280;34607;48.520;-1.330;2022-10-22T07:57:12;99773.22;;;14.54;100.00
48796;BME280;34607;48.520;-1.330;2022-10-22T07:59:41;99770.59;;;14.56;100.00
48796;BME280;34607;48.520;-1.330;2022-10-22T08:02:08;99782.78;;;14.54;100.00
48796;BME280;34607;48.520;-1.330;2022-10-22T08:04:35;99774.97;;;14.58;100.00
48796;BME280;34607;48.520;-1.330;2022-10-22T08:07:02;99780.13;;;14.61;100.00
48796;BME280;34607;48.520;-1.330;2022-10-22T08:09:30;99783.53;;;14.70;100.00
48796;BME280;34607;48.520;-1.330;2022-10-22T08:11:57;99783.47;;;14.77;100.00
48796;BME280;34607;48.520;-1.330;2022-10-22T08:14:24;99779.91;;;14.85;100.00
48796;BME280;34607;48.520;-1.330;2022-10-22T08:16:53;99784.19;;;14.90;100.00
48796;BME280;34607;48.520;-1.330;2022-10-22T08:19:20;99794.47;;;15.04;100.00
48796;BME280;34607;48.520;-1.330;2022-10-22T08:21:47;99787.53;;;15.06;100.00
48796;BME280;34607;48.520;-1.330;2022-10-22T08:24:14;99794.41;;;15.10;100.00
48796;BME280;34607;48.520;-1.330;2022-10-22T08:26:41;99797.94;;;15.06;100.00
48796;BME280;34607;48.520;-1.330;2022-10-22T08:29:08;99799.66;;;15.07;100.00
48796;BME280;34607;48.520;-1.330;2022-10-22T08:31:35;99802.28;;;15.07;100.00
48796;BME280;34607;48.520;-1.330;2022-10-22T08:34:04;99792.59;;;15.17;100.00
48796;BME280;34607;48.520;-1.330;2022-10-22T08:36:32;99805.47;;;15.31;100.00
48796;BME280;34607;48.520;-1.330;2022-10-22T08:38:59;99810.56;;;15.40;100.00
48796;BME280;34607;48.520;-1.330;2022-10-22T08:41:27;99810.44;;;15.52;100.00
48796;BME280;34607;48.520;-1.330;2022-10-22T08:44:11;99801.72;;;15.53;100.00
48796;BME280;34607;48.520;-1.330;2022-10-22T08:46:54;99814.75;;;15.57;100.00
48796;BME280;34607;48.520;-1.330;2022-10-22T08:49:26;99810.41;;;15.54;100.00
48796;BME280;34607;48.520;-1.330;2022-10-22T08:51:56;99813.91;;;15.53;100.00
48796;BME280;34607;48.520;-1.330;2022-10-22T08:54:32;99812.22;;;15.49;100.00
48796;BME280;34607;48.520;-1.330;2022-10-22T08:57:18;99816.50;;;15.56;100.00
48796;BME280;34607;48.520;-1.330;2022-10-22T08:59:54;99827.66;;;15.64;100.00
48796;BME280;34607;48.520;-1.330;2022-10-22T09:02:33;99823.34;;;15.65;100.00
48796;BME280;34607;48.520;-1.330;2022-10-22T09:05:15;99818.84;;;15.78;100.00
48796;BME280;34607;48.520;-1.330;2022-10-22T09:07:47;99813.69;;;15.70;100.00
48796;BME280;34607;48.520;-1.330;2022-10-22T09:10:16;99798.94;;;15.66;100.00
48796;BME280;34607;48.520;-1.330;2022-10-22T09:12:44;99817.84;;;15.86;100.00
48796;BME280;34607;48.520;-1.330;2022-10-22T09:15:13;99801.34;;;15.83;100.00
48796;BME280;34607;48.520;-1.330;2022-10-22T09:17:52;99822.19;;;15.87;100.00
48796;BME280;34607;48.520;-1.330;2022-10-22T09:20:27;99816.03;;;15.91;100.00
48796;BME280;34607;48.520;-1.330;2022-10-22T09:23:05;99818.59;;;15.95;100.00
48796;BME280;34607;48.520;-1.330;2022-10-22T09:25:37;99814.19;;;15.98;100.00
48796;BME280;34607;48.520;-1.330;2022-10-22T09:28:04;99812.41;;;16.02;100.00
48796;BME280;34607;48.520;-1.330;2022-10-22T09:30:34;99810.38;;;16.19;100.00
48796;BME280;34607;48.520;-1.330;2022-10-22T09:33:10;99809.25;;;16.37;100.00
48796;BME280;34607;48.520;-1.330;2022-10-22T09:35:45;99809.09;;;16.46;100.00
48796;BME280;34607;48.520;-1.330;2022-10-22T09:38:16;99805.34;;;16.63;100.00
48796;BME280;34607;48.520;-1.330;2022-10-22T09:40:47;99806.16;;;16.66;100.00
48796;BME280;34607;48.520;-1.330;2022-10-22T09:43:15;99808.75;;;16.68;100.00
48796;BME280;34607;48.520;-1.330;2022-10-22T09:45:47;99814.59;;;16.81;100.00
48796;BME280;34607;48.520;-1.330;2022-10-22T09:48:21;99807.81;;;16.71;100.00
48796;BME280;34607;48.520;-1.330;2022-10-22T09:50:59;99802.56;;;16.71;100.00
48796;BME280;34607;48.520;-1.330;2022-10-22T09:53:30;99808.53;;;16.79;100.00
48796;BME280;34607;48.520;-1.330;2022-10-22T09:55:59;99802.44;;;16.80;100.00
48796;BME280;34607;48.520;-1.330;2022-10-22T09:58:27;99808.25;;;16.97;100.00
48796;BME280;34607;48.520;-1.330;2022-10-22T10:00:57;99804.75;;;16.98;100.00
48796;BME280;34607;48.520;-1.330;2022-10-22T10:03:26;99803.69;;;17.09;100.00
48796;BME280;34607;48.520;-1.330;2022-10-22T10:05:57;99806.06;;;17.21;100.00
48796;BME280;34607;48.520;-1.330;2022-10-22T10:08:25;99814.63;;;17.29;100.00
48796;BME280;34607;48.520;-1.330;2022-10-22T10:10:54;99824.06;;;17.36;100.00
48796;BME280;34607;48.520;-1.330;2022-10-22T10:13:33;99825.56;;;17.50;100.00
48796;BME280;34607;48.520;-1.330;2022-10-22T10:16:23;99818.91;;;17.32;100.00
48796;BME280;34607;48.520;-1.330;2022-10-22T10:19:05;99821.91;;;17.12;100.00
48796;BME280;34607;48.520;-1.330;2022-10-22T10:21:43;99809.69;;;17.14;100.00
48796;BME280;34607;48.520;-1.330;2022-10-22T10:24:18;99812.16;;;17.20;100.00
48796;BME280;34607;48.520;-1.330;2022-10-22T10:26:52;99810.75;;;17.03;100.00
48796;BME280;34607;48.520;-1.330;2022-10-22T10:29:30;99813.34;;;17.05;100.00
48796;BME280;34607;48.520;-1.330;2022-10-22T10:32:10;99813.06;;;17.19;100.00
48796;BME280;34607;48.520;-1.330;2022-10-22T10:34:45;99803.91;;;17.41;100.00
48796;BME280;34607;48.520;-1.330;2022-10-22T10:37:19;99813.81;;;17.68;100.00
48796;BME280;34607;48.520;-1.330;2022-10-22T10:40:03;99809.16;;;17.82;100.00
48796;BME280;34607;48.520;-1.330;2022-10-22T10:42:35;99803.50;;;18.01;100.00
48796;BME280;34607;48.520;-1.330;2022-10-22T10:45:15;99799.31;;;18.31;100.00
48796;BME280;34607;48.520;-1.330;2022-10-22T10:48:14;99803.44;;;18.41;100.00
48796;BME280;34607;48.520;-1.330;2022-10-22T10:50:50;99797.88;;;18.53;100.00
48796;BME280;34607;48.520;-1.330;2022-10-22T10:53:29;99789.94;;;18.57;100.00
48796;BME280;34607;48.520;-1.330;2022-10-22T10:56:07;99792.94;;;18.76;100.00
48796;BME280;34607;48.520;-1.330;2022-10-22T10:58:49;99784.44;;;18.66;100.00
48796;BME280;34607;48.520;-1.330;2022-10-22T11:01:26;99800.06;;;18.36;100.00
48796;BME280;34607;48.520;-1.330;2022-10-22T11:06:41;99800.66;;;18.47;100.00
48796;BME280;34607;48.520;-1.330;2022-10-22T11:09:21;99789.97;;;18.55;100.00
48796;BME280;34607;48.520;-1.330;2022-10-22T11:11:53;99792.03;;;18.77;100.00
48796;BME280;34607;48.520;-1.330;2022-10-22T11:14:26;99777.16;;;18.77;100.00
48796;BME280;34607;48.520;-1.330;2022-10-22T11:16:58;99796.22;;;18.85;100.00
48796;BME280;34607;48.520;-1.330;2022-10-22T11:19:31;99801.00;;;19.02;100.00
48796;BME280;34607;48.520;-1.330;2022-10-22T11:22:02;99795.88;;;18.98;100.00
48796;BME280;34607;48.520;-1.330;2022-10-22T11:24:37;99793.00;;;19.07;100.00
48796;BME280;34607;48.520;-1.330;2022-10-22T11:27:12;99780.06;;;19.01;100.00
48796;BME280;34607;48.520;-1.330;2022-10-22T11:29:45;99795.53;;;19.10;100.00
48796;BME280;34607;48.520;-1.330;2022-10-22T11:32:16;99798.47;;;18.99;100.00
48796;BME280;34607;48.520;-1.330;2022-10-22T11:34:46;99794.06;;;19.00;100.00
48796;BME280;34607;48.520;-1.330;2022-10-22T11:37:14;99782.38;;;19.12;100.00
48796;BME280;34607;48.520;-1.330;2022-10-22T11:39:46;99771.00;;;19.13;99.53
48796;BME280;34607;48.520;-1.330;2022-10-22T11:42:19;99770.28;;;19.37;99.59
48796;BME280;34607;48.520;-1.330;2022-10-22T11:44:58;99747.69;;;19.32;99.30
48796;BME280;34607;48.520;-1.330;2022-10-22T11:47:28;99746.50;;;19.42;99.27
48796;BME280;34607;48.520;-1.330;2022-10-22T11:50:09;99745.28;;;19.54;97.40
48796;BME280;34607;48.520;-1.330;2022-10-22T11:52:52;99782.00;;;19.85;97.25
48796;BME280;34607;48.520;-1.330;2022-10-22T11:55:43;99785.13;;;19.68;97.22
48796;BME280;34607;48.520;-1.330;2022-10-22T11:58:32;99761.78;;;19.27;95.99
48796;BME280;34607;48.520;-1.330;2022-10-22T12:01:20;99775.81;;;18.95;99.24
48796;BME280;34607;48.520;-1.330;2022-10-22T12:03:50;99763.16;;;18.78;100.00
48796;BME280;34607;48.520;-1.330;2022-10-22T12:06:21;99768.91;;;18.93;100.00
48796;BME280;34607;48.520;-1.330;2022-10-22T12:08:57;99764.41;;;18.98;100.00
48796;BME280;34607;48.520;-1.330;2022-10-22T12:11:34;99743.78;;;18.84;100.00
48796;BME280;34607;48.520;-1.330;2022-10-22T12:14:15;99738.63;;;18.79;100.00
48796;BME280;34607;48.520;-1.330;2022-10-22T12:16:45;99745.19;;;18.97;100.00
48796;BME280;34607;48.520;-1.330;2022-10-22T12:19:14;99719.75;;;18.99;99.53
48796;BME280;34607;48.520;-1.330;2022-10-22T12:21:46;99750.03;;;19.41;98.14
48796;BME280;34607;48.520;-1.330;2022-10-22T12:24:18;99736.78;;;19.74;98.25
48796;BME280;34607;48.520;-1.330;2022-10-22T12:26:47;99743.94;;;19.98;96.66
48796;BME280;34607;48.520;-1.330;2022-10-22T12:29:18;99720.56;;;19.89;95.66
48796;BME280;34607;48.520;-1.330;2022-10-22T12:31:47;99685.81;;;19.51;94.87
48796;BME280;34607;48.520;-1.330;2022-10-22T12:34:15;99739.38;;;19.75;94.57
48796;BME280;34607;48.520;-1.330;2022-10-22T12:36:43;99709.38;;;19.54;95.03
48796;BME280;34607;48.520;-1.330;2022-10-22T12:39:14;99736.06;;;19.69;94.37
48796;BME280;34607;48.520;-1.330;2022-10-22T12:41:42;99740.31;;;19.74;94.70
48796;BME280;34607;48.520;-1.330;2022-10-22T12:44:13;99749.31;;;19.65;94.69
48796;BME280;34607;48.520;-1.330;2022-10-22T12:46:42;99737.69;;;19.73;94.02
48796;BME280;34607;48.520;-1.330;2022-10-22T12:49:15;99720.91;;;19.78;94.53
48796;BME280;34607;48.520;-1.330;2022-10-22T12:51:44;99731.03;;;19.91;94.34
48796;BME280;34607;48.520;-1.330;2022-10-22T12:54:21;99735.97;;;19.72;94.13
48796;BME280;34607;48.520;-1.330;2022-10-22T12:56:50;99743.97;;;19.67;94.98
48796;BME280;34607;48.520;-1.330;2022-10-22T12:59:20;99745.47;;;19.48;95.11
48796;BME280;34607;48.520;-1.330;2022-10-22T13:01:49;99743.81;;;19.45;95.23
48796;BME280;34607;48.520;-1.330;2022-10-22T13:04:31;99739.03;;;19.58;95.89